Hopewell, Alabama
Current Conditions -  °F | °C
As of 2:53 PM on Saturday 22 Nov 2014 (Local Time) from KBHM Reporting Station
Broken Clouds Broken Clouds  
Wind Chill: 67°   Ceiling: 25000
Heat Index: 67°   Visibility: 10mi
Dew Point: 48°   Wind: 8mph
Humidity: 51%   Direction: 140°SE
Pressure: 30.2"   Gusts: 16mph
Location:  33.3984°N, 87.0224°W
Report Text: KBHM 222053Z 14007G14KT 10SM SCT043 BKN250 19/09 A3020 RMK AO2 SLP225 T01940089 56028
Loading
Personal Weather Stations






























Interactive Weather Map New forecast layout! Learn more

10-Day Weather Forecast

Advertisements
Track Severe Weather on mobile